createdAt,value
2018-04-25T00:00:16.862Z,955.15
2018-04-25T00:01:16.874Z,955.12
2018-04-25T00:02:16.885Z,955.10
2018-04-25T00:03:16.898Z,955.08
2018-04-25T00:04:16.906Z,955.09
2018-04-25T00:05:16.923Z,955.07
2018-04-25T00:06:16.928Z,955.06
2018-04-25T00:07:16.941Z,955.04
2018-04-25T00:08:16.962Z,955.05
2018-04-25T00:09:16.962Z,955.08
2018-04-25T00:10:16.973Z,955.06
2018-04-25T00:11:16.983Z,955.06
2018-04-25T00:12:17.015Z,955.09
2018-04-25T00:13:17.008Z,955.03
2018-04-25T00:14:17.019Z,955.04
2018-04-25T00:15:17.027Z,955.04
2018-04-25T00:16:17.040Z,955.04
2018-04-25T00:17:17.050Z,955.01
2018-04-25T00:18:17.060Z,954.99
2018-04-25T00:19:17.076Z,955.01
2018-04-25T00:20:17.089Z,955.00
2018-04-25T00:21:17.097Z,954.99
2018-04-25T00:22:17.106Z,954.98
2018-04-25T00:23:17.122Z,955.01
2018-04-25T00:24:17.177Z,954.99
2018-04-25T00:25:17.150Z,955.01
2018-04-25T00:26:17.159Z,954.99
2018-04-25T00:27:17.169Z,954.97
2018-04-25T00:28:17.173Z,955.01
2018-04-25T00:29:17.183Z,954.96
2018-04-25T00:30:17.192Z,954.97
2018-04-25T00:31:17.204Z,954.95
2018-04-25T00:32:17.223Z,954.92
2018-04-25T00:33:17.229Z,954.93
2018-04-25T00:34:17.238Z,954.89
2018-04-25T00:35:17.257Z,954.92
2018-04-25T00:36:17.263Z,954.93
2018-04-25T00:37:17.268Z,954.92
2018-04-25T00:38:17.299Z,954.94
2018-04-25T00:39:17.290Z,954.92
2018-04-25T00:40:17.303Z,954.93
2018-04-25T00:41:17.310Z,954.93
2018-04-25T00:42:17.324Z,954.95
2018-04-25T00:43:17.342Z,954.91
2018-04-25T00:44:17.345Z,954.94
2018-04-25T00:45:17.356Z,954.94
2018-04-25T00:46:17.370Z,954.91
2018-04-25T00:47:17.377Z,954.94
2018-04-25T00:48:17.424Z,954.95
2018-04-25T00:49:17.407Z,954.92
2018-04-25T00:50:17.406Z,954.96
2018-04-25T00:51:17.424Z,954.92
2018-04-25T00:52:17.429Z,954.91
2018-04-25T00:53:17.465Z,954.94
2018-04-25T00:54:17.453Z,954.93
2018-04-25T00:55:17.469Z,954.90
2018-04-25T00:56:17.474Z,954.93
2018-04-25T00:57:17.483Z,954.90
2018-04-25T00:58:17.500Z,954.91
2018-04-25T00:59:17.516Z,954.92
2018-04-25T01:00:17.520Z,954.94
2018-04-25T01:01:17.547Z,954.93
2018-04-25T01:02:17.538Z,954.90
2018-04-25T01:03:17.570Z,954.92
2018-04-25T01:04:17.569Z,954.94
2018-04-25T01:05:17.570Z,954.90
2018-04-25T01:06:17.582Z,954.92
2018-04-25T01:07:17.596Z,954.92
2018-04-25T01:08:17.616Z,954.95
2018-04-25T01:09:17.614Z,954.97
2018-04-25T01:10:17.627Z,954.95
2018-04-25T01:11:17.640Z,954.99
2018-04-25T01:12:17.647Z,955.00
2018-04-25T01:13:17.657Z,954.98
2018-04-25T01:14:17.670Z,954.97
2018-04-25T01:15:17.688Z,954.99
2018-04-25T01:16:17.694Z,955.00
2018-04-25T01:17:17.700Z,955.00
2018-04-25T01:18:17.708Z,955.02
2018-04-25T01:19:17.730Z,955.02
2018-04-25T01:20:17.737Z,955.02
2018-04-25T01:21:17.748Z,955.04
2018-04-25T01:22:17.789Z,955.01
2018-04-25T01:23:17.768Z,955.06
2018-04-25T01:24:17.778Z,955.02
2018-04-25T01:25:17.785Z,955.04
2018-04-25T01:26:17.798Z,955.04
2018-04-25T01:27:17.841Z,955.07
2018-04-25T01:28:17.819Z,955.08
2018-04-25T01:29:17.834Z,955.10
2018-04-25T01:30:17.841Z,955.11
2018-04-25T01:31:17.853Z,955.13
2018-04-25T01:32:17.869Z,955.13
2018-04-25T01:33:17.875Z,955.13
2018-04-25T01:34:17.882Z,955.15
2018-04-25T01:35:17.898Z,955.16
2018-04-25T01:36:17.924Z,955.16
2018-04-25T01:37:17.915Z,955.17
2018-04-25T01:38:17.927Z,955.17
2018-04-25T01:39:17.941Z,955.14
2018-04-25T01:40:17.951Z,955.11
2018-04-25T01:41:17.973Z,955.11
2018-04-25T01:42:17.968Z,955.06
2018-04-25T01:43:18.002Z,955.04
2018-04-25T01:44:17.993Z,955.08
2018-04-25T01:45:18.034Z,955.11
2018-04-25T01:46:18.016Z,955.14
2018-04-25T01:47:18.023Z,955.17
2018-04-25T01:48:18.036Z,955.14
2018-04-25T01:49:18.097Z,955.17
2018-04-25T01:50:18.063Z,955.20
2018-04-25T01:51:18.065Z,955.18
2018-04-25T01:52:18.080Z,955.16
2018-04-25T01:53:18.091Z,955.16
2018-04-25T01:54:18.100Z,955.18
2018-04-25T01:55:18.131Z,955.13
2018-04-25T01:56:18.134Z,955.13
2018-04-25T01:57:18.132Z,955.08
2018-04-25T01:58:18.145Z,955.07
2018-04-25T01:59:18.156Z,955.09
2018-04-25T02:00:18.169Z,955.13
2018-04-25T02:01:18.180Z,955.12
2018-04-25T02:02:18.187Z,955.10
2018-04-25T02:03:18.197Z,955.08
2018-04-25T02:04:18.211Z,955.08
2018-04-25T02:05:18.228Z,955.09
2018-04-25T02:06:18.229Z,955.09
2018-04-25T02:07:18.245Z,955.10
2018-04-25T02:08:18.255Z,955.14
2018-04-25T02:09:18.261Z,955.11
2018-04-25T02:10:18.282Z,955.12
2018-04-25T02:11:18.287Z,955.17
2018-04-25T02:12:18.303Z,955.12
2018-04-25T02:13:18.309Z,955.13
2018-04-25T02:14:18.316Z,955.13
2018-04-25T02:15:18.328Z,955.09
2018-04-25T02:16:18.341Z,955.09
2018-04-25T02:17:18.351Z,955.11
2018-04-25T02:18:18.360Z,955.05
2018-04-25T02:19:18.370Z,955.09
2018-04-25T02:20:18.394Z,955.06
2018-04-25T02:21:18.397Z,955.08
2018-04-25T02:22:18.420Z,955.12
2018-04-25T02:23:18.417Z,955.10
2018-04-25T02:24:18.425Z,955.06
2018-04-25T02:25:18.436Z,955.06
2018-04-25T02:26:18.456Z,955.04
2018-04-25T02:27:18.457Z,955.05
2018-04-25T02:28:18.474Z,955.04
2018-04-25T02:29:18.477Z,955.04
2018-04-25T02:30:18.491Z,955.04
2018-04-25T02:31:18.502Z,955.05
2018-04-25T02:32:18.529Z,955.04
2018-04-25T02:33:18.530Z,955.06
2018-04-25T02:34:18.546Z,955.03
2018-04-25T02:35:18.542Z,954.99
2018-04-25T02:36:18.556Z,954.98
2018-04-25T02:37:18.565Z,955.02
2018-04-25T02:38:18.575Z,954.98
2018-04-25T02:39:18.590Z,955.00
2018-04-25T02:40:18.598Z,954.99
2018-04-25T02:41:18.622Z,954.93
2018-04-25T02:42:18.629Z,954.94
2018-04-25T02:43:18.629Z,954.98
2018-04-25T02:44:18.641Z,954.96
2018-04-25T02:45:18.744Z,954.92
2018-04-25T02:46:18.663Z,954.95
2018-04-25T02:47:18.673Z,954.94
2018-04-25T02:48:18.694Z,954.92
2018-04-25T02:49:18.703Z,954.95
2018-04-25T02:50:18.705Z,954.91
2018-04-25T02:51:18.714Z,954.93
2018-04-25T02:52:18.736Z,954.94
2018-04-25T02:53:18.737Z,954.93
2018-04-25T02:54:18.751Z,954.94
2018-04-25T02:55:18.757Z,954.88
2018-04-25T02:56:18.784Z,954.90
2018-04-25T02:57:18.780Z,954.90
2018-04-25T02:58:18.788Z,954.91
2018-04-25T02:59:18.988Z,954.84
2018-04-25T03:00:18.829Z,954.84
2018-04-25T03:01:18.823Z,954.86
2018-04-25T03:02:18.834Z,954.84
2018-04-25T03:03:18.859Z,954.86
2018-04-25T03:04:18.860Z,954.83
2018-04-25T03:05:18.865Z,954.84
2018-04-25T03:06:18.877Z,954.84
2018-04-25T03:07:18.885Z,954.82
2018-04-25T03:08:18.899Z,954.80
2018-04-25T03:09:18.920Z,954.75
2018-04-25T03:10:18.918Z,954.77
2018-04-25T03:11:18.931Z,954.78
2018-04-25T03:12:18.941Z,954.81
2018-04-25T03:13:18.949Z,954.76
2018-04-25T03:14:18.964Z,954.77
2018-04-25T03:15:18.972Z,954.79
2018-04-25T03:16:18.985Z,954.80
2018-04-25T03:17:18.996Z,954.77
2018-04-25T03:18:19.002Z,954.79
2018-04-25T03:19:19.013Z,954.81
2018-04-25T03:20:19.031Z,954.79
2018-04-25T03:21:19.038Z,954.81
2018-04-25T03:22:19.054Z,954.82
2018-04-25T03:23:19.053Z,954.82
2018-04-25T03:24:19.064Z,954.84
2018-04-25T03:25:19.079Z,954.82
2018-04-25T03:26:19.091Z,954.82
2018-04-25T03:27:19.098Z,954.79
2018-04-25T03:28:19.106Z,954.83
2018-04-25T03:29:19.128Z,954.82
2018-04-25T03:30:19.127Z,954.79
2018-04-25T03:31:19.137Z,954.78
2018-04-25T03:32:19.153Z,954.76
2018-04-25T03:33:19.158Z,954.73
2018-04-25T03:34:19.175Z,954.73
2018-04-25T03:35:19.198Z,954.72
2018-04-25T03:36:19.195Z,954.73
2018-04-25T03:37:19.199Z,954.75
2018-04-25T03:38:19.210Z,954.74
2018-04-25T03:39:19.225Z,954.73
2018-04-25T03:40:19.232Z,954.69
2018-04-25T03:41:19.243Z,954.72
2018-04-25T03:42:19.260Z,954.73
2018-04-25T03:43:19.266Z,954.72
2018-04-25T03:44:19.275Z,954.71
2018-04-25T03:45:19.281Z,954.71
2018-04-25T03:46:19.291Z,954.76
2018-04-25T03:47:19.308Z,954.71
2018-04-25T03:48:19.317Z,954.71
2018-04-25T03:49:19.331Z,954.68
2018-04-25T03:50:19.335Z,954.67
2018-04-25T03:51:19.342Z,954.68
2018-04-25T03:52:19.354Z,954.69
2018-04-25T03:53:19.367Z,954.70
2018-04-25T03:54:19.377Z,954.72
2018-04-25T03:55:19.395Z,954.72
2018-04-25T03:56:19.427Z,954.72
2018-04-25T03:57:19.404Z,954.71
2018-04-25T03:58:19.415Z,954.74
2018-04-25T03:59:19.425Z,954.71
2018-04-25T04:00:19.435Z,954.73
2018-04-25T04:01:19.445Z,954.70
2018-04-25T04:02:19.457Z,954.74
2018-04-25T04:03:19.489Z,954.67
2018-04-25T04:04:19.481Z,954.71
2018-04-25T04:05:19.488Z,954.71
2018-04-25T04:06:19.501Z,954.73
2018-04-25T04:07:19.513Z,954.69
2018-04-25T04:08:19.522Z,954.69
2018-04-25T04:09:19.528Z,954.67
2018-04-25T04:10:19.537Z,954.71
2018-04-25T04:11:19.551Z,954.67
2018-04-25T04:12:19.562Z,954.69
2018-04-25T04:13:19.567Z,954.72
2018-04-25T04:14:19.577Z,954.75
2018-04-25T04:15:19.587Z,954.76
2018-04-25T04:16:19.612Z,954.75
2018-04-25T04:17:19.606Z,954.79
2018-04-25T04:18:19.618Z,954.78
2018-04-25T04:19:19.627Z,954.78
2018-04-25T04:20:19.649Z,954.79
2018-04-25T04:21:19.648Z,954.78
2018-04-25T04:22:19.665Z,954.77
2018-04-25T04:23:19.672Z,954.77
2018-04-25T04:24:19.684Z,954.75
2018-04-25T04:25:19.688Z,954.75
2018-04-25T04:26:19.701Z,954.75
2018-04-25T04:27:19.714Z,954.73
2018-04-25T04:28:19.739Z,954.68
2018-04-25T04:29:19.730Z,954.66
2018-04-25T04:30:19.738Z,954.69
2018-04-25T04:31:19.749Z,954.69
2018-04-25T04:32:19.772Z,954.72
2018-04-25T04:33:19.774Z,954.74
2018-04-25T04:34:19.779Z,954.70
2018-04-25T04:35:19.796Z,954.75
2018-04-25T04:36:19.801Z,954.80
2018-04-25T04:37:19.811Z,954.81
2018-04-25T04:38:19.821Z,954.81
2018-04-25T04:39:19.833Z,954.80
2018-04-25T04:40:19.844Z,954.80
2018-04-25T04:41:19.851Z,954.78
2018-04-25T04:42:19.863Z,954.78
2018-04-25T04:43:19.871Z,954.78
2018-04-25T04:44:19.883Z,954.82
2018-04-25T04:45:19.895Z,954.82
2018-04-25T04:46:19.908Z,954.85
2018-04-25T04:47:19.918Z,954.80
2018-04-25T04:48:19.923Z,954.83
2018-04-25T04:49:19.933Z,954.86
2018-04-25T04:50:19.949Z,954.83
2018-04-25T04:51:19.957Z,954.85
2018-04-25T04:52:19.972Z,954.84
2018-04-25T04:53:19.976Z,954.82
2018-04-25T04:54:19.993Z,954.84
2018-04-25T04:55:20.013Z,954.88
2018-04-25T04:56:20.008Z,954.86
2018-04-25T04:57:20.015Z,954.86
2018-04-25T04:58:20.025Z,954.87
2018-04-25T04:59:20.039Z,954.90
2018-04-25T05:00:20.047Z,954.90
2018-04-25T05:01:20.065Z,954.92
2018-04-25T05:02:20.073Z,954.92
2018-04-25T05:03:20.081Z,954.94
2018-04-25T05:04:20.088Z,954.92
2018-04-25T05:05:20.101Z,954.90
2018-04-25T05:06:20.110Z,954.90
2018-04-25T05:07:20.120Z,954.89
2018-04-25T05:08:20.202Z,954.88
2018-04-25T05:09:20.161Z,954.88
2018-04-25T05:10:20.148Z,954.89
2018-04-25T05:11:20.173Z,954.88
2018-04-25T05:12:20.174Z,954.86
2018-04-25T05:13:20.188Z,954.89
2018-04-25T05:14:20.192Z,954.88
2018-04-25T05:15:20.203Z,954.86
2018-04-25T05:16:20.212Z,954.86
2018-04-25T05:17:20.231Z,954.86
2018-04-25T05:18:20.240Z,954.83
2018-04-25T05:19:20.245Z,954.84
2018-04-25T05:20:20.256Z,954.85
2018-04-25T05:21:20.281Z,954.79
2018-04-25T05:22:20.278Z,954.81
2018-04-25T05:23:20.285Z,954.82
2018-04-25T05:24:20.345Z,954.78
2018-04-25T05:25:20.305Z,954.81
2018-04-25T05:26:20.317Z,954.79
2018-04-25T05:27:20.327Z,954.74
2018-04-25T05:28:20.351Z,954.76
2018-04-25T05:29:20.354Z,954.73
2018-04-25T05:30:20.383Z,954.77
2018-04-25T05:31:20.394Z,954.77
2018-04-25T05:32:20.425Z,954.77
2018-04-25T05:33:20.391Z,954.80
2018-04-25T05:34:20.406Z,954.77
2018-04-25T05:35:20.412Z,954.78
2018-04-25T05:36:20.423Z,954.78
2018-04-25T05:37:20.434Z,954.79
2018-04-25T05:38:20.443Z,954.75
2018-04-25T05:39:20.454Z,954.77
2018-04-25T05:40:20.464Z,954.72
2018-04-25T05:41:20.476Z,954.72
2018-04-25T05:42:20.490Z,954.71
2018-04-25T05:43:20.497Z,954.76
2018-04-25T05:44:20.506Z,954.74
2018-04-25T05:45:20.521Z,954.71
2018-04-25T05:46:20.527Z,954.70
2018-04-25T05:47:20.540Z,954.73
2018-04-25T05:48:20.549Z,954.72
2018-04-25T05:49:20.565Z,954.73
2018-04-25T05:50:20.587Z,954.76
2018-04-25T05:51:20.583Z,954.75
2018-04-25T05:52:20.608Z,954.75
2018-04-25T05:53:20.604Z,954.78
2018-04-25T05:54:20.615Z,954.75
2018-04-25T05:55:20.641Z,954.80
2018-04-25T05:56:20.634Z,954.77
2018-04-25T05:57:20.648Z,954.82
2018-04-25T05:58:20.658Z,954.76
2018-04-25T05:59:20.675Z,954.79
2018-04-25T06:00:20.680Z,954.76
2018-04-25T06:01:20.698Z,954.77
2018-04-25T06:02:20.701Z,954.76
2018-04-25T06:03:20.713Z,954.79
2018-04-25T06:04:20.723Z,954.77
2018-04-25T06:05:20.737Z,954.80
2018-04-25T06:06:20.754Z,954.79
2018-04-25T06:07:20.758Z,954.81
2018-04-25T06:08:20.772Z,954.81
2018-04-25T06:09:20.779Z,954.84
2018-04-25T06:10:20.795Z,954.80
2018-04-25T06:11:20.800Z,954.82
2018-04-25T06:12:20.878Z,954.84
2018-04-25T06:13:20.822Z,954.83
2018-04-25T06:14:20.838Z,954.83
2018-04-25T06:15:20.845Z,954.81
2018-04-25T06:16:20.858Z,954.84
2018-04-25T06:17:20.870Z,954.84
2018-04-25T06:18:20.881Z,954.84
2018-04-25T06:19:20.890Z,954.84
2018-04-25T06:20:20.953Z,954.78
2018-04-25T06:21:20.913Z,954.81
2018-04-25T06:22:20.925Z,954.76
2018-04-25T06:23:20.935Z,954.79
2018-04-25T06:24:20.948Z,954.79
2018-04-25T06:25:20.957Z,954.79
2018-04-25T06:26:20.970Z,954.78
2018-04-25T06:27:21.020Z,954.80
2018-04-25T06:28:20.992Z,954.82
2018-04-25T06:29:21.007Z,954.84
2018-04-25T06:30:21.016Z,954.79
2018-04-25T06:31:21.026Z,954.81
2018-04-25T06:32:21.038Z,954.81
2018-04-25T06:33:21.049Z,954.76
2018-04-25T06:34:21.059Z,954.74
2018-04-25T06:35:21.075Z,954.72
2018-04-25T06:36:21.090Z,954.69
2018-04-25T06:37:21.098Z,954.68
2018-04-25T06:38:21.110Z,954.67
2018-04-25T06:39:21.205Z,954.65
2018-04-25T06:40:21.139Z,954.67
2018-04-25T06:41:21.140Z,954.65
2018-04-25T06:42:21.151Z,954.64
2018-04-25T06:43:21.180Z,954.61
2018-04-25T06:44:21.176Z,954.65
2018-04-25T06:45:21.183Z,954.63
2018-04-25T06:46:21.235Z,954.63
2018-04-25T06:47:21.209Z,954.63
2018-04-25T06:48:21.230Z,954.66
2018-04-25T06:49:21.233Z,954.63
2018-04-25T06:50:21.244Z,954.69
2018-04-25T06:51:21.253Z,954.64
2018-04-25T06:52:21.273Z,954.68
2018-04-25T06:53:21.306Z,954.63
2018-04-25T06:54:21.293Z,954.66
2018-04-25T06:55:21.307Z,954.64
2018-04-25T06:56:21.315Z,954.66
2018-04-25T06:57:21.325Z,954.65
2018-04-25T06:58:21.345Z,954.72
2018-04-25T06:59:21.361Z,954.70
2018-04-25T07:00:21.366Z,954.70
2018-04-25T07:01:21.412Z,954.70
2018-04-25T07:02:21.395Z,954.72
2018-04-25T07:03:21.396Z,954.72
2018-04-25T07:04:21.407Z,954.71
2018-04-25T07:05:21.423Z,954.69
2018-04-25T07:06:21.438Z,954.71
2018-04-25T07:07:21.442Z,954.70
2018-04-25T07:08:21.465Z,954.76
2018-04-25T07:09:21.467Z,954.68
2018-04-25T07:10:21.478Z,954.66
2018-04-25T07:11:21.494Z,954.59
2018-04-25T07:12:21.536Z,954.60
2018-04-25T07:13:21.587Z,954.56
2018-04-25T07:14:21.527Z,954.59
2018-04-25T07:15:21.541Z,954.61
2018-04-25T07:16:21.550Z,954.58
2018-04-25T07:17:21.565Z,954.58
2018-04-25T07:18:21.587Z,954.52
2018-04-25T07:19:21.589Z,954.52
2018-04-25T07:20:21.599Z,954.52
2018-04-25T07:21:21.623Z,954.56
2018-04-25T07:22:21.625Z,954.56
2018-04-25T07:23:21.643Z,954.54
2018-04-25T07:24:21.653Z,954.56
2018-04-25T07:25:21.665Z,954.58
2018-04-25T07:26:21.672Z,954.51
2018-04-25T07:27:21.694Z,954.53
2018-04-25T07:28:21.696Z,954.54
2018-04-25T07:29:21.708Z,954.54
2018-04-25T07:30:21.749Z,954.62
2018-04-25T07:31:21.752Z,954.59
2018-04-25T07:32:21.751Z,954.60
2018-04-25T07:33:21.764Z,954.52
2018-04-25T07:34:21.786Z,954.52
2018-04-25T07:35:21.838Z,954.57
2018-04-25T07:36:21.795Z,954.56
2018-04-25T07:37:21.829Z,954.56
2018-04-25T07:38:21.831Z,954.60
2018-04-25T07:39:21.832Z,954.49
2018-04-25T07:40:21.872Z,954.52
2018-04-25T07:41:21.859Z,954.57
2018-04-25T07:42:21.872Z,954.55
2018-04-25T07:43:21.891Z,954.67
2018-04-25T07:44:21.896Z,954.58
2018-04-25T07:45:21.954Z,954.61
2018-04-25T07:46:21.921Z,954.53
2018-04-25T07:47:21.931Z,954.53
2018-04-25T07:48:21.943Z,954.51
2018-04-25T07:49:21.963Z,954.55
2018-04-25T07:50:21.970Z,954.55
2018-04-25T07:51:21.988Z,954.52
2018-04-25T07:52:22.083Z,954.53
2018-04-25T07:53:22.005Z,954.52
2018-04-25T07:54:22.027Z,954.51
2018-04-25T07:55:22.032Z,954.57
2018-04-25T07:56:22.051Z,954.56
2018-04-25T07:57:22.068Z,954.58
2018-04-25T07:58:22.071Z,954.60
2018-04-25T07:59:22.082Z,954.58
2018-04-25T08:00:22.096Z,954.59
2018-04-25T08:01:22.107Z,954.60
2018-04-25T08:02:22.127Z,954.61
2018-04-25T08:03:22.130Z,954.64
2018-04-25T08:04:22.156Z,954.62
2018-04-25T08:05:22.163Z,954.65
2018-04-25T08:06:22.173Z,954.62
2018-04-25T08:07:22.188Z,954.62
2018-04-25T08:08:22.202Z,954.59
2018-04-25T08:09:22.208Z,954.64
2018-04-25T08:10:22.234Z,954.57
2018-04-25T08:11:22.241Z,954.65
2018-04-25T08:12:22.314Z,954.64
2018-04-25T08:13:22.264Z,954.53
2018-04-25T08:14:22.288Z,954.65
2018-04-25T08:15:22.295Z,954.64
2018-04-25T08:16:22.300Z,954.65
2018-04-25T08:17:22.314Z,954.69
2018-04-25T08:18:22.324Z,954.67
2018-04-25T08:19:22.338Z,954.67
2018-04-25T08:20:22.349Z,954.70
2018-04-25T08:21:22.372Z,954.72
2018-04-25T08:22:22.380Z,954.64
2018-04-25T08:23:22.393Z,954.62
2018-04-25T08:24:22.403Z,954.66
2018-04-25T08:25:22.420Z,954.71
2018-04-25T08:26:22.429Z,954.73
2018-04-25T08:27:22.441Z,954.96
2018-04-25T08:28:22.456Z,954.89
2018-04-25T08:29:22.467Z,954.93
2018-04-25T08:30:22.482Z,955.04
2018-04-25T08:31:22.498Z,954.93
2018-04-25T08:32:22.506Z,954.86
2018-04-25T08:33:22.521Z,954.87
2018-04-25T08:34:22.551Z,954.81
2018-04-25T08:35:22.553Z,954.74
2018-04-25T08:36:22.559Z,954.77
2018-04-25T08:37:22.572Z,954.80
2018-04-25T08:38:22.639Z,954.83
2018-04-25T08:39:22.601Z,954.86
2018-04-25T08:40:22.615Z,954.86
2018-04-25T08:41:22.626Z,954.80
2018-04-25T08:42:22.643Z,954.84
2018-04-25T08:43:22.663Z,954.85
2018-04-25T08:44:22.678Z,954.89
2018-04-25T08:45:22.684Z,954.92
2018-04-25T08:46:22.701Z,954.98
2018-04-25T08:47:22.713Z,955.02
2018-04-25T08:48:22.727Z,954.66
2018-04-25T08:49:22.741Z,954.92
2018-04-25T08:50:22.758Z,954.86
2018-04-25T08:51:22.778Z,954.74
2018-04-25T08:52:22.787Z,954.67
2018-04-25T08:53:22.799Z,954.80
2018-04-25T08:54:22.809Z,954.75
2018-04-25T08:55:22.823Z,954.75
2018-04-25T08:56:22.846Z,954.71
2018-04-25T08:57:22.858Z,954.67
2018-04-25T08:58:22.866Z,954.69
2018-04-25T08:59:22.881Z,954.67
2018-04-25T09:00:22.897Z,954.72
2018-04-25T09:01:22.908Z,954.69
2018-04-25T09:02:22.922Z,954.60
2018-04-25T09:03:22.938Z,954.59
2018-04-25T09:04:22.951Z,954.59
2018-04-25T09:05:22.967Z,954.48
2018-04-25T09:06:22.983Z,954.44
2018-04-25T09:07:23.019Z,954.56
2018-04-25T09:08:23.006Z,954.51
2018-04-25T09:09:23.018Z,954.55
2018-04-25T09:10:23.033Z,954.52
2018-04-25T09:11:23.049Z,954.47
2018-04-25T09:12:23.062Z,954.48
2018-04-25T09:13:23.074Z,954.54
2018-04-25T09:14:23.099Z,954.44
2018-04-25T09:15:23.104Z,954.49
2018-04-25T09:16:23.115Z,954.32
2018-04-25T09:17:23.129Z,954.40
2018-04-25T09:18:23.141Z,954.36
2018-04-25T09:19:23.157Z,954.43
2018-04-25T09:20:23.228Z,954.38
2018-04-25T09:21:23.191Z,954.41
2018-04-25T09:22:23.200Z,954.42
2018-04-25T09:23:23.218Z,954.41
2018-04-25T09:24:23.226Z,954.36
2018-04-25T09:25:23.240Z,954.40
2018-04-25T09:26:23.307Z,954.37
2018-04-25T09:27:23.275Z,954.42
2018-04-25T09:28:23.289Z,954.35
2018-04-25T09:29:23.295Z,954.36
2018-04-25T09:30:23.311Z,954.35
2018-04-25T09:31:23.322Z,954.34
2018-04-25T09:32:23.338Z,954.31
2018-04-25T09:33:23.356Z,954.30
2018-04-25T09:34:23.376Z,954.18
2018-04-25T09:35:23.382Z,954.31
2018-04-25T09:36:23.395Z,954.29
2018-04-25T09:37:23.410Z,954.34
2018-04-25T09:38:23.421Z,954.43
2018-04-25T09:39:23.434Z,954.38
2018-04-25T09:40:23.450Z,954.26
2018-04-25T09:41:23.470Z,954.21
2018-04-25T09:42:23.481Z,954.25
2018-04-25T09:43:23.489Z,954.30
2018-04-25T09:44:23.511Z,954.24
2018-04-25T09:45:23.516Z,954.29
2018-04-25T09:46:23.533Z,954.35
2018-04-25T09:47:23.566Z,954.38
2018-04-25T09:48:23.560Z,954.25
2018-04-25T09:49:23.589Z,954.31
2018-04-25T09:50:23.584Z,954.41
2018-04-25T09:51:23.604Z,954.41
2018-04-25T09:52:23.612Z,954.37
2018-04-25T09:53:23.631Z,954.41
2018-04-25T09:54:23.646Z,954.34
2018-04-25T09:55:23.668Z,954.21
2018-04-25T09:56:23.678Z,954.21
2018-04-25T09:57:23.775Z,954.22
2018-04-25T09:58:23.698Z,954.38
2018-04-25T09:59:23.711Z,954.35
2018-04-25T10:00:23.732Z,954.46
2018-04-25T10:01:23.745Z,954.27
2018-04-25T10:02:23.774Z,954.24
2018-04-25T10:03:23.796Z,954.24
2018-04-25T10:04:23.786Z,954.34
2018-04-25T10:05:23.799Z,954.23
2018-04-25T10:06:23.813Z,954.24
2018-04-25T10:07:23.827Z,954.16
2018-04-25T10:08:23.840Z,954.14
2018-04-25T10:09:23.867Z,954.12
2018-04-25T10:10:23.868Z,954.13
2018-04-25T10:11:23.882Z,954.12
2018-04-25T10:12:23.899Z,954.14
2018-04-25T10:13:23.914Z,954.16
2018-04-25T10:14:23.927Z,954.16
2018-04-25T10:15:23.942Z,954.11
2018-04-25T10:16:23.992Z,954.08
2018-04-25T10:17:24.019Z,954.13
2018-04-25T10:18:23.985Z,953.98
2018-04-25T10:19:23.997Z,954.03
2018-04-25T10:20:24.016Z,953.98
2018-04-25T10:21:24.025Z,954.32
2018-04-25T10:22:24.038Z,954.13
2018-04-25T10:23:24.061Z,954.00
2018-04-25T10:24:24.073Z,954.03
2018-04-25T10:25:24.086Z,953.91
2018-04-25T10:26:24.103Z,954.08
2018-04-25T10:27:24.110Z,954.03
2018-04-25T10:28:24.127Z,954.11
2018-04-25T10:29:24.138Z,954.25
2018-04-25T10:30:24.160Z,954.20
2018-04-25T10:31:24.169Z,954.12
2018-04-25T10:32:24.190Z,954.05
2018-04-25T10:33:24.199Z,954.04
2018-04-25T10:34:24.210Z,954.23
2018-04-25T10:35:24.227Z,954.45
2018-04-25T10:36:24.241Z,954.29
2018-04-25T10:37:24.255Z,954.03
2018-04-25T10:38:24.269Z,954.04
2018-04-25T10:39:24.289Z,954.15
2018-04-25T10:40:24.345Z,954.07
2018-04-25T10:41:24.317Z,954.24
2018-04-25T10:42:24.334Z,954.16
2018-04-25T10:43:24.353Z,954.03
2018-04-25T10:44:24.365Z,954.08
2018-04-25T10:45:24.375Z,954.10
2018-04-25T10:46:24.391Z,954.10
2018-04-25T10:47:24.405Z,953.97
2018-04-25T10:48:24.418Z,954.10
2018-04-25T10:49:24.433Z,954.11
2018-04-25T10:50:24.447Z,954.10
2018-04-25T10:51:24.460Z,954.09
2018-04-25T10:52:24.478Z,954.04
2018-04-25T10:53:24.493Z,954.02
2018-04-25T10:54:24.504Z,953.97
2018-04-25T10:55:24.568Z,954.03
2018-04-25T10:56:24.535Z,953.91
2018-04-25T10:57:24.553Z,953.96
2018-04-25T10:58:24.571Z,954.06
2018-04-25T10:59:24.580Z,954.13
2018-04-25T11:00:24.604Z,954.04
2018-04-25T11:01:24.609Z,954.10
2018-04-25T11:02:24.673Z,954.05
2018-04-25T11:03:24.640Z,953.96
2018-04-25T11:04:24.667Z,953.97
2018-04-25T11:05:24.695Z,953.94
2018-04-25T11:06:24.688Z,954.11
2018-04-25T11:07:24.757Z,954.32
2018-04-25T11:08:24.776Z,954.29
2018-04-25T11:09:24.732Z,954.49
2018-04-25T11:10:24.748Z,954.46
2018-04-25T11:11:24.766Z,954.37
2018-04-25T11:12:24.783Z,954.37
2018-04-25T11:13:24.811Z,954.27
2018-04-25T11:14:24.821Z,954.33
2018-04-25T11:15:24.840Z,954.34
2018-04-25T11:16:24.861Z,954.44
2018-04-25T11:17:24.882Z,954.44
2018-04-25T11:18:24.894Z,954.27
2018-04-25T11:19:24.929Z,954.41
2018-04-25T11:20:24.989Z,954.38
2018-04-25T11:21:24.955Z,954.49
2018-04-25T11:22:24.974Z,954.58
2018-04-25T11:23:25.001Z,954.79
2018-04-25T11:24:25.020Z,954.75
2018-04-25T11:25:25.040Z,954.56
2018-04-25T11:26:25.068Z,954.60
2018-04-25T11:27:25.082Z,954.48
2018-04-25T11:28:25.107Z,954.52
2018-04-25T11:29:25.127Z,954.70
2018-04-25T11:30:25.155Z,954.76
2018-04-25T11:31:25.182Z,954.60
2018-04-25T11:32:25.195Z,954.73
2018-04-25T11:33:25.218Z,954.12
2018-04-25T11:34:25.284Z,954.84
2018-04-25T11:35:25.263Z,955.08
2018-04-25T11:36:25.303Z,954.71
2018-04-25T11:37:25.319Z,954.96
2018-04-25T11:38:25.335Z,954.68
2018-04-25T11:39:25.374Z,954.95
2018-04-25T11:40:25.391Z,954.25
2018-04-25T11:41:25.418Z,954.90
2018-04-25T11:42:25.441Z,954.47
2018-04-25T11:43:25.451Z,955.12
2018-04-25T11:44:25.483Z,954.48
2018-04-25T11:45:25.497Z,954.53
2018-04-25T11:46:25.520Z,954.63
2018-04-25T11:47:25.542Z,954.64
2018-04-25T11:48:25.565Z,954.59
2018-04-25T11:49:25.586Z,954.50
2018-04-25T11:50:25.619Z,954.54
2018-04-25T11:51:25.633Z,954.47
2018-04-25T11:52:25.658Z,954.75
2018-04-25T11:53:25.686Z,954.36
2018-04-25T11:54:25.709Z,954.09
2018-04-25T11:55:25.725Z,954.39
2018-04-25T11:56:25.760Z,954.26
2018-04-25T11:57:25.771Z,954.56
2018-04-25T11:58:25.799Z,954.60
2018-04-25T11:59:25.818Z,954.56
2018-04-25T12:00:25.843Z,954.50
2018-04-25T12:01:25.866Z,954.61
2018-04-25T12:02:25.888Z,954.52
2018-04-25T12:03:25.910Z,954.66
2018-04-25T12:04:25.936Z,954.57
2018-04-25T12:05:25.957Z,954.68
2018-04-25T12:06:25.979Z,954.58
2018-04-25T12:07:26.011Z,954.68
2018-04-25T12:08:26.029Z,954.61
2018-04-25T12:09:26.052Z,954.79
2018-04-25T12:10:26.081Z,954.72
2018-04-25T12:11:26.111Z,954.77
2018-04-25T12:12:26.123Z,954.85
2018-04-25T12:13:26.145Z,954.87
2018-04-25T12:14:26.198Z,954.86
2018-04-25T12:15:26.200Z,955.06
2018-04-25T12:16:26.218Z,955.06
2018-04-25T12:17:26.249Z,954.97
2018-04-25T12:18:26.268Z,955.09
2018-04-25T12:19:26.290Z,955.00
2018-04-25T12:20:26.315Z,954.91
2018-04-25T12:21:26.339Z,955.00
2018-04-25T12:22:26.391Z,955.07
2018-04-25T12:23:26.396Z,955.06
2018-04-25T12:24:26.453Z,955.13
2018-04-25T12:25:26.440Z,955.30
2018-04-25T12:26:26.468Z,955.44
2018-04-25T12:27:26.487Z,955.30
2018-04-25T12:28:26.515Z,955.45